createdAt,value
2022-11-25T00:01:11.890Z,2.47
2022-11-25T00:03:59.885Z,2.40
2022-11-25T00:06:47.640Z,2.07
2022-11-25T00:09:34.304Z,2.43
2022-11-25T00:12:20.858Z,2.57
2022-11-25T00:15:07.912Z,3.13
2022-11-25T00:17:54.788Z,2.67
2022-11-25T00:20:41.331Z,2.00
2022-11-25T00:23:33.155Z,2.30
2022-11-25T00:26:20.218Z,2.27
2022-11-25T00:29:09.168Z,2.30
2022-11-25T00:31:55.797Z,2.93
2022-11-25T00:34:42.630Z,2.23
2022-11-25T00:37:29.152Z,2.80
2022-11-25T00:40:17.167Z,2.57
2022-11-25T00:43:20.964Z,2.33
2022-11-25T00:46:07.758Z,2.57
2022-11-25T00:48:54.211Z,2.60
2022-11-25T00:51:40.816Z,2.10
2022-11-25T00:54:27.599Z,2.97
2022-11-25T00:57:16.579Z,2.40
2022-11-25T01:00:03.615Z,2.77
2022-11-25T01:02:49.972Z,2.07
2022-11-25T01:05:36.410Z,2.77
2022-11-25T01:08:22.976Z,2.03
2022-11-25T01:11:12.630Z,3.27
2022-11-25T01:14:01.669Z,2.60
2022-11-25T01:16:48.643Z,2.10
2022-11-25T01:19:39.957Z,2.40
2022-11-25T01:22:26.450Z,2.50
2022-11-25T01:25:12.847Z,2.27
2022-11-25T01:27:59.311Z,2.50
2022-11-25T01:30:47.094Z,1.80
2022-11-25T01:33:34.571Z,2.30
2022-11-25T01:36:21.347Z,2.17
2022-11-25T01:39:08.190Z,2.30
2022-11-25T01:41:54.873Z,1.90
2022-11-25T01:44:43.661Z,2.03
2022-11-25T01:47:31.914Z,2.30
2022-11-25T01:50:22.132Z,2.53
2022-11-25T01:53:10.954Z,2.50
2022-11-25T01:56:02.981Z,1.90
2022-11-25T01:58:50.614Z,1.73
2022-11-25T02:01:37.741Z,2.13
2022-11-25T02:04:34.873Z,1.80
2022-11-25T02:07:29.121Z,2.47
2022-11-25T02:10:19.283Z,1.70
2022-11-25T02:13:05.914Z,2.27
2022-11-25T02:15:52.895Z,1.77
2022-11-25T02:18:39.603Z,2.10
2022-11-25T02:21:37.691Z,2.40
2022-11-25T02:24:32.208Z,1.70
2022-11-25T02:27:20.946Z,2.43
2022-11-25T02:30:09.278Z,2.37
2022-11-25T02:32:56.200Z,1.80
2022-11-25T02:35:44.704Z,2.43
2022-11-25T02:38:36.972Z,1.90
2022-11-25T02:41:28.455Z,2.03
2022-11-25T02:44:16.576Z,2.03
2022-11-25T02:47:03.559Z,2.40
2022-11-25T02:49:50.216Z,2.00
2022-11-25T02:52:36.790Z,1.90
2022-11-25T02:55:23.339Z,2.07
2022-11-25T02:58:10.313Z,1.87
2022-11-25T03:00:58.287Z,2.03
2022-11-25T03:03:45.138Z,2.23
2022-11-25T03:06:32.323Z,1.97
2022-11-25T03:09:18.763Z,2.03
2022-11-25T03:12:20.593Z,2.03
2022-11-25T03:15:08.094Z,1.80
2022-11-25T03:17:56.260Z,1.70
2022-11-25T03:20:43.036Z,1.80
2022-11-25T03:23:29.797Z,2.10
2022-11-25T03:26:16.411Z,1.77
2022-11-25T03:29:02.849Z,1.93
2022-11-25T03:31:49.574Z,1.73
2022-11-25T03:34:38.117Z,1.60
2022-11-25T03:37:25.441Z,1.40
2022-11-25T03:40:14.024Z,1.90
2022-11-25T03:43:00.889Z,1.87
2022-11-25T03:45:50.607Z,2.17
2022-11-25T03:48:37.137Z,1.83
2022-11-25T03:51:25.038Z,1.63
2022-11-25T03:54:11.725Z,1.80
2022-11-25T03:56:58.549Z,2.23
2022-11-25T03:59:45.074Z,1.80
2022-11-25T04:02:31.545Z,1.80
2022-11-25T04:05:18.106Z,1.90
2022-11-25T04:08:06.363Z,1.80
2022-11-25T04:10:53.378Z,2.03
2022-11-25T04:13:38.749Z,2.10
2022-11-25T04:16:27.608Z,2.00
2022-11-25T04:19:14.853Z,1.97
2022-11-25T04:22:02.794Z,1.83
2022-11-25T04:24:50.806Z,1.50
2022-11-25T04:27:37.678Z,1.73
2022-11-25T04:30:24.388Z,1.53
2022-11-25T04:33:11.043Z,1.87
2022-11-25T04:35:57.422Z,2.10
2022-11-25T04:38:43.766Z,2.10
2022-11-25T04:41:31.733Z,2.40
2022-11-25T04:44:18.426Z,2.07
2022-11-25T04:47:05.126Z,2.20
2022-11-25T04:49:51.974Z,1.90
2022-11-25T04:52:38.460Z,1.73
2022-11-25T04:55:25.289Z,2.20
2022-11-25T04:58:13.647Z,1.87
2022-11-25T05:00:59.380Z,2.00
2022-11-25T05:03:50.654Z,1.83
2022-11-25T05:06:40.019Z,2.07
2022-11-25T05:09:26.777Z,3.07
2022-11-25T05:12:15.370Z,2.30
2022-11-25T05:15:04.968Z,1.60
2022-11-25T05:17:51.712Z,1.53
2022-11-25T05:20:38.362Z,2.10
2022-11-25T05:23:24.956Z,2.03
2022-11-25T05:26:11.612Z,2.70
2022-11-25T05:28:58.176Z,1.87
2022-11-25T05:31:46.010Z,2.00
2022-11-25T05:34:33.338Z,2.00
2022-11-25T05:37:24.309Z,1.93
2022-11-25T05:40:11.868Z,2.03
2022-11-25T05:43:01.667Z,1.90
2022-11-25T05:45:48.481Z,1.90
2022-11-25T05:48:37.084Z,2.10
2022-11-25T05:51:24.391Z,2.50
2022-11-25T05:54:11.188Z,2.27
2022-11-25T05:56:57.938Z,2.67
2022-11-25T05:59:44.399Z,2.13
2022-11-25T06:02:30.960Z,2.83
2022-11-25T06:05:19.412Z,2.23
2022-11-25T06:08:06.359Z,2.57
2022-11-25T06:10:53.107Z,2.27
2022-11-25T06:13:39.820Z,2.80
2022-11-25T06:16:26.871Z,2.30
2022-11-25T06:19:13.241Z,2.20
2022-11-25T06:22:01.063Z,2.00
2022-11-25T06:24:56.460Z,2.20
2022-11-25T06:28:11.485Z,2.20
2022-11-25T06:30:52.521Z,2.50
2022-11-25T06:33:38.839Z,2.37
2022-11-25T06:36:25.310Z,2.70
2022-11-25T06:39:13.066Z,2.70
2022-11-25T06:41:59.727Z,2.60
2022-11-25T06:44:46.427Z,2.60
2022-11-25T06:47:33.066Z,2.37
2022-11-25T06:50:20.007Z,2.37
2022-11-25T06:53:06.813Z,3.07
2022-11-25T06:56:05.628Z,3.00
2022-11-25T06:58:53.010Z,3.27
2022-11-25T07:01:39.748Z,2.30
2022-11-25T07:04:26.756Z,2.70
2022-11-25T07:07:13.690Z,2.27
2022-11-25T07:10:00.683Z,2.70
2022-11-25T07:12:48.475Z,2.83
2022-11-25T07:15:35.987Z,2.50
2022-11-25T07:18:22.763Z,2.70
2022-11-25T07:21:11.617Z,2.30
2022-11-25T07:24:00.550Z,2.83
2022-11-25T07:26:47.461Z,3.23
2022-11-25T07:29:57.949Z,2.67
2022-11-25T07:32:43.169Z,3.10
2022-11-25T07:35:29.676Z,2.93
2022-11-25T07:38:16.244Z,3.10
2022-11-25T07:41:07.366Z,3.23
2022-11-25T07:43:55.836Z,2.50
2022-11-25T07:46:45.530Z,2.90
2022-11-25T07:49:32.699Z,3.07
2022-11-25T07:52:20.176Z,2.30
2022-11-25T07:55:07.602Z,2.77
2022-11-25T07:57:54.287Z,2.93
2022-11-25T08:00:40.704Z,2.77
2022-11-25T08:03:28.626Z,2.70
2022-11-25T08:06:17.710Z,2.33
2022-11-25T08:09:05.245Z,3.30
2022-11-25T08:11:53.398Z,3.20
2022-11-25T08:14:41.135Z,3.33
2022-11-25T08:17:28.654Z,3.00
2022-11-25T08:20:16.877Z,3.40
2022-11-25T08:23:03.416Z,2.80
2022-11-25T08:25:50.766Z,2.83
2022-11-25T08:28:38.377Z,2.67
2022-11-25T08:31:27.410Z,3.43
2022-11-25T08:34:20.118Z,2.90
2022-11-25T08:37:09.032Z,3.20
2022-11-25T08:39:56.241Z,3.20
2022-11-25T08:42:42.901Z,3.00
2022-11-25T08:45:30.626Z,3.13
2022-11-25T08:48:19.364Z,3.60
2022-11-25T08:51:11.034Z,3.10
2022-11-25T08:53:59.615Z,3.10
2022-11-25T08:56:46.091Z,3.90
2022-11-25T08:59:32.686Z,3.57
2022-11-25T09:02:19.266Z,4.50
2022-11-25T09:05:06.464Z,3.67
2022-11-25T09:07:53.180Z,3.60
2022-11-25T09:10:42.090Z,3.40
2022-11-25T09:13:29.012Z,2.90
2022-11-25T09:16:15.412Z,3.63
2022-11-25T09:19:02.059Z,3.60
2022-11-25T09:21:48.544Z,3.57
2022-11-25T09:24:36.077Z,3.00
2022-11-25T09:27:24.131Z,3.20
2022-11-25T09:30:11.917Z,2.90
2022-11-25T09:32:58.858Z,3.23
2022-11-25T09:35:45.686Z,3.37
2022-11-25T09:38:32.407Z,3.47
2022-11-25T09:41:59.504Z,3.50
2022-11-25T09:45:17.266Z,3.20
2022-11-25T09:48:20.360Z,3.50
2022-11-25T09:51:14.805Z,3.30
2022-11-25T09:54:11.560Z,3.77
2022-11-25T09:57:05.869Z,3.73
2022-11-25T10:00:04.700Z,3.53
2022-11-25T10:03:03.956Z,3.00
2022-11-25T10:05:58.539Z,3.27
2022-11-25T10:08:49.036Z,3.03
2022-11-25T10:11:47.832Z,3.73
2022-11-25T10:14:40.855Z,3.20
2022-11-25T10:17:37.135Z,3.67
2022-11-25T10:20:26.820Z,3.53
2022-11-25T10:23:26.420Z,3.70
2022-11-25T10:26:17.014Z,4.13
2022-11-25T10:29:21.276Z,3.90
2022-11-25T10:32:22.980Z,4.00
2022-11-25T10:35:22.186Z,3.77
2022-11-25T10:38:18.988Z,3.30
2022-11-25T10:41:06.536Z,4.40
2022-11-25T10:43:53.014Z,4.20
2022-11-25T10:47:12.466Z,5.37
2022-11-25T10:50:04.833Z,3.23
2022-11-25T10:52:59.162Z,3.60
2022-11-25T10:55:59.659Z,4.10
2022-11-25T10:58:47.149Z,5.20
2022-11-25T11:01:33.686Z,3.60
2022-11-25T11:04:21.939Z,3.90
2022-11-25T11:07:10.125Z,4.07
2022-11-25T11:10:15.589Z,6.45
2022-11-25T11:13:04.024Z,5.40
2022-11-25T11:15:50.773Z,5.37
2022-11-25T11:18:42.679Z,6.30
2022-11-25T11:21:35.491Z,5.97
2022-11-25T11:24:28.889Z,5.83
2022-11-25T11:27:22.668Z,6.27
2022-11-25T11:30:17.471Z,6.47
2022-11-25T11:33:07.077Z,6.70
2022-11-25T11:35:59.162Z,4.70
2022-11-25T11:38:54.072Z,4.97
2022-11-25T11:41:47.015Z,4.63
2022-11-25T11:44:41.277Z,4.23
2022-11-25T11:47:35.547Z,4.70
2022-11-25T11:50:30.517Z,4.13
2022-11-25T11:53:23.548Z,3.80
2022-11-25T11:56:34.822Z,3.93
2022-11-25T11:59:48.810Z,3.63
2022-11-25T12:02:59.291Z,4.30
2022-11-25T12:05:46.224Z,4.80
2022-11-25T12:08:43.966Z,4.70
2022-11-25T12:11:36.453Z,4.93
2022-11-25T12:14:36.533Z,5.00
2022-11-25T12:17:33.144Z,5.83
2022-11-25T12:20:28.811Z,5.17
2022-11-25T12:23:22.254Z,5.90
2022-11-25T12:26:14.693Z,5.73
2022-11-25T12:29:06.363Z,5.60
2022-11-25T12:31:59.060Z,5.57
2022-11-25T12:34:54.763Z,6.40
2022-11-25T12:37:47.927Z,6.70
2022-11-25T12:40:41.755Z,6.20
2022-11-25T12:43:38.867Z,6.07
2022-11-25T12:46:30.699Z,6.27
2022-11-25T12:49:20.641Z,7.27
2022-11-25T12:52:32.336Z,6.70
2022-11-25T12:55:21.488Z,7.17
2022-11-25T12:58:36.462Z,6.90
2022-11-25T13:01:53.571Z,7.17
2022-11-25T13:05:18.536Z,6.53
2022-11-25T13:08:20.269Z,7.00
2022-11-25T13:11:22.164Z,6.50
2022-11-25T13:14:22.483Z,7.50
2022-11-25T13:17:13.201Z,7.40
2022-11-25T13:20:34.313Z,6.60
2022-11-25T13:23:48.653Z,6.77
2022-11-25T13:26:50.759Z,7.27
2022-11-25T13:30:02.272Z,6.70
2022-11-25T13:32:48.726Z,7.00
2022-11-25T13:35:37.846Z,13.20
2022-11-25T13:38:59.930Z,9.10
2022-11-25T13:41:58.490Z,7.57
2022-11-25T13:44:53.507Z,9.67
2022-11-25T13:47:43.187Z,12.33
2022-11-25T13:50:48.358Z,11.00
2022-11-25T13:53:39.556Z,10.50
2022-11-25T13:56:29.558Z,9.03
2022-11-25T13:59:37.594Z,9.07
2022-11-25T14:02:49.790Z,10.13
2022-11-25T14:06:01.942Z,8.20
2022-11-25T14:08:56.816Z,7.87
2022-11-25T14:12:03.540Z,8.23
2022-11-25T14:15:12.136Z,7.50
2022-11-25T14:19:12.128Z,8.03
2022-11-25T14:22:06.860Z,7.70
2022-11-25T14:25:01.560Z,7.57
2022-11-25T14:27:51.480Z,7.47
2022-11-25T14:30:51.850Z,7.20
2022-11-25T14:33:49.615Z,7.10
2022-11-25T14:36:41.967Z,7.60
2022-11-25T14:39:35.346Z,7.07
2022-11-25T14:42:28.266Z,8.30
2022-11-25T14:45:24.052Z,6.77
2022-11-25T14:48:15.327Z,6.80
2022-11-25T14:51:03.694Z,6.60
2022-11-25T14:53:51.981Z,6.80
2022-11-25T14:56:39.331Z,7.07
2022-11-25T14:59:28.072Z,7.57
2022-11-25T15:02:26.061Z,8.37
2022-11-25T15:05:19.385Z,7.40
2022-11-25T15:08:12.550Z,7.33
2022-11-25T15:11:01.836Z,8.27
2022-11-25T15:13:50.237Z,7.20
2022-11-25T15:16:41.349Z,7.07
2022-11-25T15:19:33.820Z,7.03
2022-11-25T15:22:23.895Z,7.30
2022-11-25T15:25:15.186Z,6.57
2022-11-25T15:28:02.475Z,7.17
2022-11-25T15:31:00.031Z,6.10
2022-11-25T15:33:48.568Z,7.03
2022-11-25T15:36:36.158Z,6.87
2022-11-25T15:39:29.494Z,7.57
2022-11-25T15:42:20.080Z,8.07
2022-11-25T15:45:12.382Z,8.00
2022-11-25T15:47:59.191Z,7.87
2022-11-25T15:50:47.216Z,8.33
2022-11-25T15:53:37.660Z,7.80
2022-11-25T15:56:27.059Z,8.20
2022-11-25T15:59:47.312Z,8.67
2022-11-25T16:02:50.978Z,8.13
2022-11-25T16:05:38.953Z,7.87
2022-11-25T16:08:35.056Z,7.73
2022-11-25T16:11:23.327Z,7.17
2022-11-25T16:14:25.160Z,7.37
2022-11-25T16:17:13.033Z,8.90
2022-11-25T16:19:59.721Z,20.73
2022-11-25T16:22:46.565Z,8.43
2022-11-25T16:25:34.662Z,7.33
2022-11-25T16:28:22.757Z,6.97
2022-11-25T16:31:14.353Z,6.40
2022-11-25T16:34:13.690Z,7.17
2022-11-25T16:37:00.192Z,6.90
2022-11-25T16:39:46.655Z,7.67
2022-11-25T16:42:34.811Z,6.87
2022-11-25T16:45:23.682Z,9.60
2022-11-25T16:48:17.080Z,7.53
2022-11-25T16:51:03.572Z,8.37
2022-11-25T16:53:51.128Z,7.53
2022-11-25T16:56:40.827Z,6.77
2022-11-25T16:59:31.898Z,5.97
2022-11-25T17:02:20.825Z,5.97
2022-11-25T17:05:16.856Z,5.93
2022-11-25T17:08:03.427Z,6.57
2022-11-25T17:10:50.973Z,5.47
2022-11-25T17:13:39.621Z,6.17
2022-11-25T17:16:29.833Z,5.07
2022-11-25T17:19:18.120Z,5.23
2022-11-25T17:22:06.634Z,5.73
2022-11-25T17:24:54.102Z,7.23
2022-11-25T17:27:41.311Z,5.53
2022-11-25T17:30:29.203Z,5.47
2022-11-25T17:33:19.126Z,8.70
2022-11-25T17:36:06.763Z,6.13
2022-11-25T17:38:53.523Z,5.33
2022-11-25T17:41:44.354Z,5.60
2022-11-25T17:44:31.196Z,5.97
2022-11-25T17:47:18.767Z,6.40
2022-11-25T17:50:18.702Z,6.43
2022-11-25T17:53:05.321Z,5.40
2022-11-25T17:55:53.173Z,7.77
2022-11-25T17:58:39.895Z,8.67
2022-11-25T18:01:26.453Z,7.00
2022-11-25T18:04:21.080Z,5.43
2022-11-25T18:07:10.259Z,6.87
2022-11-25T18:09:57.026Z,6.57
2022-11-25T18:12:44.867Z,5.83
2022-11-25T18:15:34.047Z,5.30
2022-11-25T18:18:23.129Z,4.37
2022-11-25T18:21:12.597Z,5.63
2022-11-25T18:24:00.584Z,6.90
2022-11-25T18:26:49.149Z,5.67
2022-11-25T18:29:35.523Z,6.70
2022-11-25T18:32:23.576Z,5.23
2022-11-25T18:35:17.306Z,4.40
2022-11-25T18:38:03.756Z,6.78
2022-11-25T18:40:53.853Z,9.17
2022-11-25T18:43:40.795Z,8.13
2022-11-25T18:46:27.737Z,4.83
2022-11-25T18:49:15.353Z,5.27
2022-11-25T18:52:02.093Z,7.70
2022-11-25T18:54:49.442Z,5.53
2022-11-25T18:57:37.740Z,5.27
2022-11-25T19:00:33.087Z,5.20
2022-11-25T19:03:23.836Z,5.87
2022-11-25T19:06:15.394Z,5.87
2022-11-25T19:09:03.450Z,5.90
2022-11-25T19:11:52.971Z,5.03
2022-11-25T19:14:42.967Z,5.23
2022-11-25T19:17:29.543Z,5.10
2022-11-25T19:20:17.295Z,5.00
2022-11-25T19:23:16.990Z,4.60
2022-11-25T19:26:09.688Z,4.90
2022-11-25T19:29:03.886Z,5.60
2022-11-25T19:31:54.132Z,4.90
2022-11-25T19:34:44.168Z,5.27
2022-11-25T19:37:31.184Z,5.37
2022-11-25T19:40:19.621Z,5.70
2022-11-25T19:43:06.178Z,5.23
2022-11-25T19:45:52.573Z,5.50
2022-11-25T19:48:41.134Z,6.33
2022-11-25T19:51:30.973Z,5.97
2022-11-25T19:54:19.850Z,5.93
2022-11-25T19:57:14.887Z,7.23
2022-11-25T20:00:01.537Z,7.43
2022-11-25T20:02:50.591Z,5.60
2022-11-25T20:05:39.818Z,5.73
2022-11-25T20:08:28.837Z,5.10
2022-11-25T20:11:16.843Z,7.57
2022-11-25T20:14:04.268Z,6.20
2022-11-25T20:16:50.928Z,4.80
2022-11-25T20:19:37.991Z,5.90
2022-11-25T20:22:29.105Z,5.77
2022-11-25T20:25:16.034Z,6.23
2022-11-25T20:28:02.769Z,8.40
2022-11-25T20:30:49.936Z,13.30
2022-11-25T20:33:36.573Z,6.03
2022-11-25T20:36:29.321Z,13.13
2022-11-25T20:39:20.305Z,6.10
2022-11-25T20:42:07.448Z,5.70
2022-11-25T20:44:57.476Z,5.83
2022-11-25T20:47:45.392Z,5.87
2022-11-25T20:50:32.218Z,6.53
2022-11-25T20:53:21.015Z,6.10
2022-11-25T20:56:10.596Z,5.90
2022-11-25T20:58:57.895Z,5.77
2022-11-25T21:01:44.970Z,6.07
2022-11-25T21:04:31.761Z,6.80
2022-11-25T21:07:18.755Z,5.83
2022-11-25T21:10:23.084Z,6.60
2022-11-25T21:13:17.315Z,6.13
2022-11-25T21:16:04.139Z,5.90
2022-11-25T21:18:51.087Z,6.77
2022-11-25T21:21:40.438Z,6.20
2022-11-25T21:24:33.069Z,5.93
2022-11-25T21:27:20.526Z,6.53
2022-11-25T21:30:17.619Z,6.90
2022-11-25T21:33:04.243Z,6.40
2022-11-25T21:35:51.543Z,6.37
2022-11-25T21:38:38.008Z,6.33
2022-11-25T21:41:24.805Z,6.43
2022-11-25T21:44:15.618Z,7.10
2022-11-25T21:47:03.927Z,6.57
2022-11-25T21:49:51.287Z,6.73
2022-11-25T21:52:38.156Z,7.37
2022-11-25T21:55:24.740Z,7.00
2022-11-25T21:58:18.489Z,7.80
2022-11-25T22:01:05.317Z,6.93
2022-11-25T22:03:53.256Z,7.83
2022-11-25T22:06:40.158Z,6.60
2022-11-25T22:09:27.074Z,6.90
2022-11-25T22:12:27.808Z,7.00
2022-11-25T22:15:18.254Z,7.93
2022-11-25T22:18:05.036Z,7.90
2022-11-25T22:20:53.691Z,7.33
2022-11-25T22:23:40.704Z,7.30
2022-11-25T22:26:30.719Z,8.07
2022-11-25T22:29:20.502Z,7.87
2022-11-25T22:32:12.448Z,7.97
2022-11-25T22:34:59.546Z,7.90
2022-11-25T22:37:54.719Z,7.20
2022-11-25T22:40:43.332Z,7.40
2022-11-25T22:43:32.638Z,7.90
2022-11-25T22:46:20.180Z,8.00
2022-11-25T22:49:10.594Z,8.17
2022-11-25T22:51:58.094Z,7.43
2022-11-25T22:54:46.200Z,7.67
2022-11-25T22:57:32.782Z,7.73
2022-11-25T23:00:21.943Z,6.93
2022-11-25T23:03:16.296Z,7.57
2022-11-25T23:06:03.591Z,7.60
2022-11-25T23:08:50.092Z,7.50
2022-11-25T23:11:40.103Z,7.27
2022-11-25T23:14:27.272Z,7.80
2022-11-25T23:17:19.492Z,6.83
2022-11-25T23:20:15.571Z,6.67
2022-11-25T23:23:11.664Z,6.20
2022-11-25T23:25:59.003Z,6.90
2022-11-25T23:28:46.916Z,7.73
2022-11-25T23:31:36.392Z,6.60
2022-11-25T23:34:23.129Z,6.13
2022-11-25T23:37:13.479Z,6.20
2022-11-25T23:40:00.246Z,6.67
2022-11-25T23:42:47.179Z,6.40
2022-11-25T23:45:35.307Z,6.17
2022-11-25T23:48:25.536Z,5.77
2022-11-25T23:51:12.175Z,6.63
2022-11-25T23:53:59.984Z,6.37
2022-11-25T23:56:46.522Z,6.13
2022-11-25T23:59:32.918Z,6.17
